KLWS

Lewiston-Nez Perce County Airport

Lewiston, Idaho, USA
METAR KLWS 161356Z AUTO 17004KT 4SM -SN BR OVC019 M02/M02 A3023 RMK AO2 SLP251 P0001 T10171017
Observed Flight Rules
Dec-16 @ 13:56 UTC (40 minutes ago) Marginal Visual Flight Rules
Wind Visibility Clouds Conditions
170° at 4 knots 4 miles
  • Overcast at 1,900' AGL
  • Light Snow
  • Mist
Temperatures Readings Precipitation
Current -2°C / 28°F
Dewpoint -2°C / 28°F
Humidity 100%
Altimeter 30.23" Hg
Pressure 1025.1 hPa
Elevation 438
Current Rain 0.01
METAR KLWS 161356Z AUTO 17004KT 4SM -SN BR OVC019 M02/M02 A3023 RMK AO2 SLP251 P0001 T10171017
Observed Flight Rules
Dec-16 @ 13:56 UTC
(40 minutes ago)
MVFR
Wind Visibility
170° at 4 knots 4 miles
Clouds
  • Overcast at 1,900' AGL
Conditions
  • Light Snow
  • Mist
Temperature Dewpoint
-2°C / 28°F -2°C / 28°F
Humidity Altimeter Pressure
100% 30.23" Hg 1025.1 hPa
Current Rain
0.01